Ryoei Maru — JL6703 — position and weather

sailwx.info

Track history (hours):
 
Tides and Currents Weather Stations Pressure Air Temp Water Temp Dewpoint Dewpoint Depression Visibility Wind Speed Wind Dir Waves Ship Positions

Ryoei Maru

Last reported at 2015-Jul-03 15:33 UTC. Time now 2015-Jul-03 15:41 UTC.
Position N 35°21' E 139°42'.

Length 95 m; draft 5 m.

Type: Cargo ship. MMSI: 431501749.

Date/timePositionNaut miles runAvg speedWind from/ knotsBaromVisibWave heightAir tempDewpointWater temp
2015-Jul-03 15:33N 35°21' E 139°42'1212.3
2015-Jul-03 14:33N 35°31' E 139°51'7 5.7
2015-Jul-03 13:22N 35°37' E 139°47'0 0.0
2015-Jul-03 12:28N 35°37' E 139°47'0 0.0
2015-Jul-03 11:28N 35°37' E 139°47'0 0.0
2015-Jul-03 10:19N 35°37' E 139°47'0 0.0
2015-Jul-03 09:28N 35°37' E 139°47'0 0.0
2015-Jul-03 08:28N 35°37' E 139°47'0 0.0
2015-Jul-03 07:28N 35°37' E 139°47'0 0.0
2015-Jul-03 06:22N 35°37' E 139°47'0 0.0
2015-Jul-03 04:22N 35°37' E 139°47'0 0.0
2015-Jul-03 03:13N 35°37' E 139°47'0 0.0
2015-Jul-03 02:22N 35°37' E 139°47'0 0.0
2015-Jul-03 01:31N 35°37' E 139°47'0 0.0
2015-Jul-03 00:28N 35°37' E 139°47'4 4.2
2015-Jul-02 23:33N 35°35' E 139°51'1211.6
2015-Jul-02 22:33N 35°24' E 139°46'1111.5
2015-Jul-02 21:33N 35°13' E 139°47'1413.5
2015-Jul-02 20:34N 34°59' E 139°43'1310.2
2015-Jul-02 19:15N 34°52' E 139°57'811.1
2015-Jul-02 18:33N 34°56' E 140°05'1111.3
2015-Jul-02 17:33N 35°01' E 140°17'1511.7
2015-Jul-02 16:15N 35°11' E 140°31'  
2015-Jun-28 10:28N 35°30' E 140°44'1712.2
2015-Jun-28 09:03N 35°16' E 140°32'2013.0
2015-Jun-28 07:30N 35°00' E 140°16'1312.9
2015-Jun-28 06:29N 34°53' E 140°03'25612.2
2015-Jun-27 09:32N 33°60' E 134°60'1313.5
2015-Jun-27 08:33N 34°13' E 134°58'1212.1
2015-Jun-27 07:33N 34°24' E 135°03'1413.7
2015-Jun-27 06:33N 34°33' E 135°16'9 8.6
2015-Jun-27 05:33N 34°37' E 135°26'0 0.0
2015-Jun-27 04:31N 34°37' E 135°26'0 0.0
2015-Jun-27 03:31N 34°37' E 135°26'0 0.0
2015-Jun-27 01:31N 34°37' E 135°26'0 0.0
2015-Jun-27 00:31N 34°37' E 135°26'0 0.0
2015-Jun-26 23:31N 34°37' E 135°26'0 0.0
2015-Jun-26 22:33N 34°37' E 135°26'6 6.3
2015-Jun-26 21:34N 34°35' E 135°18'0 0.0
2015-Jun-26 20:33N 34°35' E 135°18'0 0.0
2015-Jun-26 18:27N 34°35' E 135°18'0 0.1
2015-Jun-26 17:27N 34°35' E 135°18'4 4.5
2015-Jun-26 16:33N 34°35' E 135°13'1212.4
2015-Jun-26 15:33N 34°37' E 134°58'  
Track history (hours):
 
Tides and Currents Weather Stations Pressure Air Temp Water Temp Dewpoint Dewpoint Depression Visibility Wind Speed Wind Dir Waves Ship Positions

Ryoei Maru

Last reported at 2015-Jul-03 15:33 UTC. Time now 2015-Jul-03 15:41 UTC.
Position N 35°21' E 139°42'.

Length 95 m; draft 5 m.

Type: Cargo ship. MMSI: 431501749.

Date/timePositionNaut miles runAvg speedWind from/ knotsBaromVisibWave heightAir tempDewpointWater temp
2015-Jul-03 15:33N 35°21' E 139°42'1212.3
2015-Jul-03 14:33N 35°31' E 139°51'7 5.7
2015-Jul-03 13:22N 35°37' E 139°47'0 0.0
2015-Jul-03 12:28N 35°37' E 139°47'0 0.0
2015-Jul-03 11:28N 35°37' E 139°47'0 0.0
2015-Jul-03 10:19N 35°37' E 139°47'0 0.0
2015-Jul-03 09:28N 35°37' E 139°47'0 0.0
2015-Jul-03 08:28N 35°37' E 139°47'0 0.0
2015-Jul-03 07:28N 35°37' E 139°47'0 0.0
2015-Jul-03 06:22N 35°37' E 139°47'0 0.0
2015-Jul-03 04:22N 35°37' E 139°47'0 0.0
2015-Jul-03 03:13N 35°37' E 139°47'0 0.0
2015-Jul-03 02:22N 35°37' E 139°47'0 0.0
2015-Jul-03 01:31N 35°37' E 139°47'0 0.0
2015-Jul-03 00:28N 35°37' E 139°47'4 4.2
2015-Jul-02 23:33N 35°35' E 139°51'1211.6
2015-Jul-02 22:33N 35°24' E 139°46'1111.5
2015-Jul-02 21:33N 35°13' E 139°47'1413.5
2015-Jul-02 20:34N 34°59' E 139°43'1310.2
2015-Jul-02 19:15N 34°52' E 139°57'811.1
2015-Jul-02 18:33N 34°56' E 140°05'1111.3
2015-Jul-02 17:33N 35°01' E 140°17'1511.7
2015-Jul-02 16:15N 35°11' E 140°31'  
2015-Jun-28 10:28N 35°30' E 140°44'1712.2
2015-Jun-28 09:03N 35°16' E 140°32'2013.0
2015-Jun-28 07:30N 35°00' E 140°16'1312.9
2015-Jun-28 06:29N 34°53' E 140°03'25612.2
2015-Jun-27 09:32N 33°60' E 134°60'1313.5
2015-Jun-27 08:33N 34°13' E 134°58'1212.1
2015-Jun-27 07:33N 34°24' E 135°03'1413.7
2015-Jun-27 06:33N 34°33' E 135°16'9 8.6
2015-Jun-27 05:33N 34°37' E 135°26'0 0.0
2015-Jun-27 04:31N 34°37' E 135°26'0 0.0
2015-Jun-27 03:31N 34°37' E 135°26'0 0.0
2015-Jun-27 01:31N 34°37' E 135°26'0 0.0
2015-Jun-27 00:31N 34°37' E 135°26'0 0.0
2015-Jun-26 23:31N 34°37' E 135°26'0 0.0
2015-Jun-26 22:33N 34°37' E 135°26'6 6.3
2015-Jun-26 21:34N 34°35' E 135°18'0 0.0
2015-Jun-26 20:33N 34°35' E 135°18'0 0.0
2015-Jun-26 18:27N 34°35' E 135°18'0 0.1
2015-Jun-26 17:27N 34°35' E 135°18'4 4.5
2015-Jun-26 16:33N 34°35' E 135°13'1212.4
2015-Jun-26 15:33N 34°37' E 134°58'  

Dump ship's entire track history